sensor_id;sensor_type;location;lat;lon;timestamp;pressure;altitude;pressure_sealevel;temperature;humidity
68329;BME280;55182;56.864;60.554;2024-01-10T00:00:05;77352.72;;;-143.60;72.47
68329;BME280;55182;56.864;60.554;2024-01-10T00:02:31;77354.72;;;-143.60;72.17
68329;BME280;55182;56.864;60.554;2024-01-10T00:04:56;77368.78;;;-143.60;72.12
68329;BME280;55182;56.864;60.554;2024-01-10T00:07:22;77372.81;;;-143.60;72.30
68329;BME280;55182;56.864;60.554;2024-01-10T00:09:47;77368.78;;;-143.60;72.74
68329;BME280;55182;56.864;60.554;2024-01-10T00:12:13;77372.81;;;-143.60;72.76
68329;BME280;55182;56.864;60.554;2024-01-10T00:14:39;77372.81;;;-143.60;73.19
68329;BME280;55182;56.864;60.554;2024-01-10T00:17:04;77378.84;;;-143.60;73.38
68329;BME280;55182;56.864;60.554;2024-01-10T00:19:30;77384.88;;;-143.60;73.34
68329;BME280;55182;56.864;60.554;2024-01-10T00:21:55;77384.88;;;-143.60;73.57
68329;BME280;55182;56.864;60.554;2024-01-10T00:24:21;77380.84;;;-143.60;73.66
68329;BME280;55182;56.864;60.554;2024-01-10T00:26:46;77380.84;;;-143.60;73.96
68329;BME280;55182;56.864;60.554;2024-01-10T00:29:11;77386.88;;;-143.60;73.90
68329;BME280;55182;56.864;60.554;2024-01-10T00:31:37;77380.84;;;-143.60;73.96
68329;BME280;55182;56.864;60.554;2024-01-10T00:34:02;77378.84;;;-143.60;74.02
68329;BME280;55182;56.864;60.554;2024-01-10T00:36:28;77382.88;;;-143.60;74.27
68329;BME280;55182;56.864;60.554;2024-01-10T00:38:53;77382.88;;;-143.60;74.47
68329;BME280;55182;56.864;60.554;2024-01-10T00:41:19;77376.84;;;-143.60;74.56
68329;BME280;55182;56.864;60.554;2024-01-10T00:43:44;77386.88;;;-143.60;74.49
68329;BME280;55182;56.864;60.554;2024-01-10T00:46:10;77384.88;;;-143.60;74.66
68329;BME280;55182;56.864;60.554;2024-01-10T00:48:35;77378.84;;;-143.60;74.56
68329;BME280;55182;56.864;60.554;2024-01-10T00:51:00;77386.88;;;-143.60;74.33
68329;BME280;55182;56.864;60.554;2024-01-10T00:53:26;77392.91;;;-143.60;74.40
68329;BME280;55182;56.864;60.554;2024-01-10T00:55:51;77386.88;;;-143.60;74.60
68329;BME280;55182;56.864;60.554;2024-01-10T00:58:17;77392.91;;;-143.60;74.40
68329;BME280;55182;56.864;60.554;2024-01-10T01:00:42;77392.91;;;-143.60;74.25
68329;BME280;55182;56.864;60.554;2024-01-10T01:03:08;77388.91;;;-143.60;74.23
68329;BME280;55182;56.864;60.554;2024-01-10T01:05:33;77396.94;;;-143.60;74.17
68329;BME280;55182;56.864;60.554;2024-01-10T01:07:58;77400.97;;;-143.60;74.09
68329;BME280;55182;56.864;60.554;2024-01-10T01:10:24;77402.97;;;-143.60;74.28
68329;BME280;55182;56.864;60.554;2024-01-10T01:12:49;77404.97;;;-143.60;74.14
68329;BME280;55182;56.864;60.554;2024-01-10T01:15:15;77407.00;;;-143.60;74.25
68329;BME280;55182;56.864;60.554;2024-01-10T01:17:40;77402.97;;;-143.60;74.02
68329;BME280;55182;56.864;60.554;2024-01-10T01:20:06;77402.97;;;-143.60;73.95
68329;BME280;55182;56.864;60.554;2024-01-10T01:22:31;77404.97;;;-143.60;74.38
68329;BME280;55182;56.864;60.554;2024-01-10T01:24:57;77407.00;;;-143.60;74.44
68329;BME280;55182;56.864;60.554;2024-01-10T01:27:22;77407.00;;;-143.60;74.48
68329;BME280;55182;56.864;60.554;2024-01-10T01:29:48;77411.00;;;-143.60;74.71
68329;BME280;55182;56.864;60.554;2024-01-10T01:32:13;77417.03;;;-143.60;74.50
68329;BME280;55182;56.864;60.554;2024-01-10T01:34:39;77423.06;;;-143.60;74.87
68329;BME280;55182;56.864;60.554;2024-01-10T01:37:04;77425.09;;;-143.60;75.09
68329;BME280;55182;56.864;60.554;2024-01-10T01:39:30;77427.09;;;-143.60;75.12
68329;BME280;55182;56.864;60.554;2024-01-10T01:41:56;77437.13;;;-143.60;75.59
68329;BME280;55182;56.864;60.554;2024-01-10T01:44:21;77433.13;;;-143.60;75.83
68329;BME280;55182;56.864;60.554;2024-01-10T01:46:47;77431.13;;;-143.60;76.00
68329;BME280;55182;56.864;60.554;2024-01-10T01:49:13;77427.09;;;-143.60;76.12
68329;BME280;55182;56.864;60.554;2024-01-10T01:51:39;77429.09;;;-143.60;76.02
68329;BME280;55182;56.864;60.554;2024-01-10T01:54:06;77433.13;;;-143.60;75.76
68329;BME280;55182;56.864;60.554;2024-01-10T01:56:32;77433.13;;;-143.60;75.27
68329;BME280;55182;56.864;60.554;2024-01-10T01:58:57;77433.13;;;-143.60;75.16
68329;BME280;55182;56.864;60.554;2024-01-10T02:01:23;77429.09;;;-143.60;75.41
68329;BME280;55182;56.864;60.554;2024-01-10T02:03:49;77431.13;;;-143.60;74.98
68329;BME280;55182;56.864;60.554;2024-01-10T02:06:14;77425.09;;;-143.60;75.23
68329;BME280;55182;56.864;60.554;2024-01-10T02:08:40;77433.13;;;-143.60;75.27
68329;BME280;55182;56.864;60.554;2024-01-10T02:11:05;77425.09;;;-143.60;75.18
68329;BME280;55182;56.864;60.554;2024-01-10T02:13:31;77411.00;;;-143.60;75.53
68329;BME280;55182;56.864;60.554;2024-01-10T02:15:58;77407.00;;;-143.60;75.70
68329;BME280;55182;56.864;60.554;2024-01-10T02:18:24;77398.94;;;-143.60;75.86
68329;BME280;55182;56.864;60.554;2024-01-10T02:20:49;77398.94;;;-143.60;75.89
68329;BME280;55182;56.864;60.554;2024-01-10T02:23:15;77380.84;;;-143.60;76.28
68329;BME280;55182;56.864;60.554;2024-01-10T02:25:40;77380.84;;;-143.60;75.80
68329;BME280;55182;56.864;60.554;2024-01-10T02:28:06;77380.84;;;-143.60;75.89
68329;BME280;55182;56.864;60.554;2024-01-10T02:30:32;77370.81;;;-143.60;75.55
68329;BME280;55182;56.864;60.554;2024-01-10T02:32:58;77376.84;;;-143.60;75.40
68329;BME280;55182;56.864;60.554;2024-01-10T02:35:23;77380.84;;;-143.60;74.86
68329;BME280;55182;56.864;60.554;2024-01-10T02:37:49;77380.84;;;-143.60;74.72
68329;BME280;55182;56.864;60.554;2024-01-10T02:40:14;77380.84;;;-143.60;74.59
68329;BME280;55182;56.864;60.554;2024-01-10T02:42:40;77384.88;;;-143.60;74.43
68329;BME280;55182;56.864;60.554;2024-01-10T02:45:06;77384.88;;;-143.60;74.30
68329;BME280;55182;56.864;60.554;2024-01-10T02:47:32;77380.84;;;-143.60;74.32
68329;BME280;55182;56.864;60.554;2024-01-10T02:49:57;77378.84;;;-143.60;74.38
68329;BME280;55182;56.864;60.554;2024-01-10T02:52:23;77378.84;;;-143.60;74.27
68329;BME280;55182;56.864;60.554;2024-01-10T02:54:48;77380.84;;;-143.60;74.30
68329;BME280;55182;56.864;60.554;2024-01-10T02:57:13;77366.78;;;-143.60;74.23
68329;BME280;55182;56.864;60.554;2024-01-10T02:59:39;77372.81;;;-143.60;74.56
68329;BME280;55182;56.864;60.554;2024-01-10T03:02:04;77372.81;;;-143.60;74.36
68329;BME280;55182;56.864;60.554;2024-01-10T03:04:30;77366.78;;;-143.60;74.31
68329;BME280;55182;56.864;60.554;2024-01-10T03:06:55;77356.75;;;-143.60;74.47
68329;BME280;55182;56.864;60.554;2024-01-10T03:09:22;77366.78;;;-143.60;74.11
68329;BME280;55182;56.864;60.554;2024-01-10T03:11:47;77366.78;;;-143.60;73.71
68329;BME280;55182;56.864;60.554;2024-01-10T03:14:13;77364.78;;;-143.60;73.82
68329;BME280;55182;56.864;60.554;2024-01-10T03:16:38;77356.75;;;-143.60;73.88
68329;BME280;55182;56.864;60.554;2024-01-10T03:19:03;77358.75;;;-143.60;73.72
68329;BME280;55182;56.864;60.554;2024-01-10T03:21:29;77352.72;;;-143.60;74.15
68329;BME280;55182;56.864;60.554;2024-01-10T03:24:01;77350.72;;;-143.60;73.76
68329;BME280;55182;56.864;60.554;2024-01-10T03:26:27;77348.69;;;-143.60;73.91
68329;BME280;55182;56.864;60.554;2024-01-10T03:28:53;77342.66;;;-143.60;73.79
68329;BME280;55182;56.864;60.554;2024-01-10T03:31:19;77340.66;;;-143.60;73.92
68329;BME280;55182;56.864;60.554;2024-01-10T03:33:44;77336.63;;;-143.60;74.28
68329;BME280;55182;56.864;60.554;2024-01-10T03:36:14;77328.59;;;-143.60;74.30
68329;BME280;55182;56.864;60.554;2024-01-10T03:38:40;77322.56;;;-143.60;74.50
68329;BME280;55182;56.864;60.554;2024-01-10T03:41:05;77316.53;;;-143.60;74.44
68329;BME280;55182;56.864;60.554;2024-01-10T03:43:31;77316.53;;;-143.60;74.58
68329;BME280;55182;56.864;60.554;2024-01-10T03:45:56;77314.53;;;-143.60;74.43
68329;BME280;55182;56.864;60.554;2024-01-10T03:48:22;77308.50;;;-143.60;74.27
68329;BME280;55182;56.864;60.554;2024-01-10T03:50:48;77308.50;;;-143.60;74.42
68329;BME280;55182;56.864;60.554;2024-01-10T03:53:13;77300.44;;;-143.60;74.50
68329;BME280;55182;56.864;60.554;2024-01-10T03:55:39;77294.44;;;-143.60;74.61
68329;BME280;55182;56.864;60.554;2024-01-10T03:58:04;77288.41;;;-143.60;74.05
68329;BME280;55182;56.864;60.554;2024-01-10T04:00:30;77286.38;;;-143.60;73.90
68329;BME280;55182;56.864;60.554;2024-01-10T04:02:55;77284.38;;;-143.60;73.70
68329;BME280;55182;56.864;60.554;2024-01-10T04:05:21;77280.34;;;-143.60;73.85
68329;BME280;55182;56.864;60.554;2024-01-10T04:07:46;77278.34;;;-143.60;73.54
68329;BME280;55182;56.864;60.554;2024-01-10T04:10:12;77272.31;;;-143.60;73.62
68329;BME280;55182;56.864;60.554;2024-01-10T04:12:38;77268.28;;;-143.60;73.48
68329;BME280;55182;56.864;60.554;2024-01-10T04:15:04;77274.31;;;-143.60;73.44
68329;BME280;55182;56.864;60.554;2024-01-10T04:17:30;77270.31;;;-143.60;73.06
68329;BME280;55182;56.864;60.554;2024-01-10T04:19:55;77282.38;;;-143.60;73.04
68329;BME280;55182;56.864;60.554;2024-01-10T04:22:23;77272.31;;;-143.60;72.55
68329;BME280;55182;56.864;60.554;2024-01-10T04:24:48;77288.41;;;-143.60;72.63
68329;BME280;55182;56.864;60.554;2024-01-10T04:27:14;77288.41;;;-143.60;72.74
68329;BME280;55182;56.864;60.554;2024-01-10T04:29:39;77288.41;;;-143.60;73.06
68329;BME280;55182;56.864;60.554;2024-01-10T04:32:05;77298.44;;;-143.60;72.99
68329;BME280;55182;56.864;60.554;2024-01-10T04:34:30;77304.47;;;-143.60;72.91
68329;BME280;55182;56.864;60.554;2024-01-10T04:36:56;77306.50;;;-143.60;72.99
68329;BME280;55182;56.864;60.554;2024-01-10T04:39:21;77302.47;;;-143.60;73.03
68329;BME280;55182;56.864;60.554;2024-01-10T04:41:47;77304.47;;;-143.60;73.14
68329;BME280;55182;56.864;60.554;2024-01-10T04:44:12;77300.44;;;-143.60;73.43
68329;BME280;55182;56.864;60.554;2024-01-10T04:46:37;77308.50;;;-143.60;73.72
68329;BME280;55182;56.864;60.554;2024-01-10T04:49:03;77306.50;;;-143.60;73.57
68329;BME280;55182;56.864;60.554;2024-01-10T04:51:28;77304.47;;;-143.60;73.80
68329;BME280;55182;56.864;60.554;2024-01-10T04:53:54;77300.44;;;-143.60;73.66
68329;BME280;55182;56.864;60.554;2024-01-10T04:56:19;77308.50;;;-143.60;73.75
68329;BME280;55182;56.864;60.554;2024-01-10T04:58:45;77304.47;;;-143.60;74.01
68329;BME280;55182;56.864;60.554;2024-01-10T05:01:10;77310.50;;;-143.60;73.75
68329;BME280;55182;56.864;60.554;2024-01-10T05:03:35;77318.53;;;-143.60;73.73
68329;BME280;55182;56.864;60.554;2024-01-10T05:06:01;77314.53;;;-143.60;73.85
68329;BME280;55182;56.864;60.554;2024-01-10T05:08:26;77312.50;;;-143.60;73.96
68329;BME280;55182;56.864;60.554;2024-01-10T05:10:52;77324.56;;;-143.60;74.16
68329;BME280;55182;56.864;60.554;2024-01-10T05:13:17;77312.50;;;-143.60;74.26
68329;BME280;55182;56.864;60.554;2024-01-10T05:15:43;77314.53;;;-143.60;74.12
68329;BME280;55182;56.864;60.554;2024-01-10T05:18:08;77318.53;;;-143.60;74.12
68329;BME280;55182;56.864;60.554;2024-01-10T05:20:34;77312.50;;;-143.60;74.23
68329;BME280;55182;56.864;60.554;2024-01-10T05:22:59;77304.47;;;-143.60;74.35
68329;BME280;55182;56.864;60.554;2024-01-10T05:25:25;77304.47;;;-143.60;74.15
68329;BME280;55182;56.864;60.554;2024-01-10T05:27:50;77308.50;;;-143.60;73.98
68329;BME280;55182;56.864;60.554;2024-01-10T05:30:16;77306.50;;;-143.60;73.64
68329;BME280;55182;56.864;60.554;2024-01-10T05:32:43;77306.50;;;-143.60;73.69
68329;BME280;55182;56.864;60.554;2024-01-10T05:35:08;77310.50;;;-143.60;73.78
68329;BME280;55182;56.864;60.554;2024-01-10T05:37:34;77312.50;;;-143.60;73.67
68329;BME280;55182;56.864;60.554;2024-01-10T05:39:59;77316.53;;;-143.60;73.93
68329;BME280;55182;56.864;60.554;2024-01-10T05:42:25;77318.53;;;-143.60;73.70
68329;BME280;55182;56.864;60.554;2024-01-10T05:44:50;77310.50;;;-143.60;73.95
68329;BME280;55182;56.864;60.554;2024-01-10T05:47:16;77310.50;;;-143.60;74.03
68329;BME280;55182;56.864;60.554;2024-01-10T05:49:42;77296.44;;;-143.60;74.17
68329;BME280;55182;56.864;60.554;2024-01-10T05:52:07;77302.47;;;-143.60;74.07
68329;BME280;55182;56.864;60.554;2024-01-10T05:54:33;77304.47;;;-143.60;74.17
68329;BME280;55182;56.864;60.554;2024-01-10T05:56:58;77304.47;;;-143.60;74.30
68329;BME280;55182;56.864;60.554;2024-01-10T05:59:24;77300.44;;;-143.60;73.99
68329;BME280;55182;56.864;60.554;2024-01-10T06:01:49;77298.44;;;-143.60;74.01
68329;BME280;55182;56.864;60.554;2024-01-10T06:04:15;77300.44;;;-143.60;73.82
68329;BME280;55182;56.864;60.554;2024-01-10T06:06:40;77300.44;;;-143.60;73.84
68329;BME280;55182;56.864;60.554;2024-01-10T06:09:06;77288.41;;;-143.60;73.70
68329;BME280;55182;56.864;60.554;2024-01-10T06:11:31;77288.41;;;-143.60;73.54
68329;BME280;55182;56.864;60.554;2024-01-10T06:13:57;77280.34;;;-143.60;73.49
68329;BME280;55182;56.864;60.554;2024-01-10T06:16:22;77268.28;;;-143.60;73.38
68329;BME280;55182;56.864;60.554;2024-01-10T06:18:48;77276.34;;;-143.60;72.86
68329;BME280;55182;56.864;60.554;2024-01-10T06:21:13;77260.25;;;-143.60;72.65
68329;BME280;55182;56.864;60.554;2024-01-10T06:23:39;77248.19;;;-143.60;72.60
68329;BME280;55182;56.864;60.554;2024-01-10T06:26:04;77244.19;;;-143.60;72.42
68329;BME280;55182;56.864;60.554;2024-01-10T06:28:30;77228.09;;;-143.60;72.31
68329;BME280;55182;56.864;60.554;2024-01-10T06:30:55;77216.03;;;-143.60;72.13
68329;BME280;55182;56.864;60.554;2024-01-10T06:33:21;77218.03;;;-143.60;71.87
68329;BME280;55182;56.864;60.554;2024-01-10T06:35:46;77201.97;;;-143.60;71.37
68329;BME280;55182;56.864;60.554;2024-01-10T06:38:12;77195.94;;;-143.60;71.36
68329;BME280;55182;56.864;60.554;2024-01-10T06:40:37;77191.91;;;-143.60;71.34
68329;BME280;55182;56.864;60.554;2024-01-10T06:43:03;77179.84;;;-143.60;71.14
68329;BME280;55182;56.864;60.554;2024-01-10T06:45:29;77167.78;;;-143.60;71.02
68329;BME280;55182;56.864;60.554;2024-01-10T06:47:54;77163.78;;;-143.60;70.81
68329;BME280;55182;56.864;60.554;2024-01-10T06:50:20;77147.69;;;-143.60;71.03
68329;BME280;55182;56.864;60.554;2024-01-10T06:52:45;77155.72;;;-143.60;70.75
68329;BME280;55182;56.864;60.554;2024-01-10T06:55:11;77155.72;;;-143.60;70.28
68329;BME280;55182;56.864;60.554;2024-01-10T06:57:36;77147.69;;;-143.60;70.56
68329;BME280;55182;56.864;60.554;2024-01-10T07:00:02;77147.69;;;-143.60;70.59
68329;BME280;55182;56.864;60.554;2024-01-10T07:02:27;77151.72;;;-143.60;70.79
68329;BME280;55182;56.864;60.554;2024-01-10T07:04:53;77149.69;;;-143.60;70.66
68329;BME280;55182;56.864;60.554;2024-01-10T07:07:18;77151.72;;;-143.60;70.67
68329;BME280;55182;56.864;60.554;2024-01-10T07:09:43;77157.75;;;-143.60;70.51
68329;BME280;55182;56.864;60.554;2024-01-10T07:12:09;77159.75;;;-143.60;70.74
68329;BME280;55182;56.864;60.554;2024-01-10T07:14:34;77153.72;;;-143.60;70.71
68329;BME280;55182;56.864;60.554;2024-01-10T07:17:00;77149.69;;;-143.60;70.94
68329;BME280;55182;56.864;60.554;2024-01-10T07:19:25;77147.69;;;-143.60;70.95
68329;BME280;55182;56.864;60.554;2024-01-10T07:21:51;77141.66;;;-143.60;70.67
68329;BME280;55182;56.864;60.554;2024-01-10T07:24:17;77127.59;;;-143.60;70.54
68329;BME280;55182;56.864;60.554;2024-01-10T07:26:42;77115.53;;;-143.60;70.34
68329;BME280;55182;56.864;60.554;2024-01-10T07:29:08;77113.53;;;-143.60;70.12
68329;BME280;55182;56.864;60.554;2024-01-10T07:31:34;77097.44;;;-143.60;69.70
68329;BME280;55182;56.864;60.554;2024-01-10T07:33:59;77083.38;;;-143.60;69.45
68329;BME280;55182;56.864;60.554;2024-01-10T07:36:25;77067.28;;;-143.60;69.41
68329;BME280;55182;56.864;60.554;2024-01-10T07:38:51;77073.31;;;-143.60;69.41
68329;BME280;55182;56.864;60.554;2024-01-10T07:41:16;77071.31;;;-143.60;69.38
68329;BME280;55182;56.864;60.554;2024-01-10T07:43:42;77083.38;;;-143.60;69.49
68329;BME280;55182;56.864;60.554;2024-01-10T07:46:07;77087.41;;;-143.60;69.83
68329;BME280;55182;56.864;60.554;2024-01-10T07:48:33;77087.41;;;-143.60;70.10
68329;BME280;55182;56.864;60.554;2024-01-10T07:50:58;77091.41;;;-143.60;70.56
68329;BME280;55182;56.864;60.554;2024-01-10T07:53:24;77099.44;;;-143.60;70.32
68329;BME280;55182;56.864;60.554;2024-01-10T07:55:49;77101.47;;;-143.60;70.64
68329;BME280;55182;56.864;60.554;2024-01-10T07:58:15;77101.47;;;-143.60;71.10
68329;BME280;55182;56.864;60.554;2024-01-10T08:00:40;77101.47;;;-143.60;71.20
68329;BME280;55182;56.864;60.554;2024-01-10T08:03:06;77111.50;;;-143.60;71.34
68329;BME280;55182;56.864;60.554;2024-01-10T08:05:31;77107.50;;;-143.60;71.55
68329;BME280;55182;56.864;60.554;2024-01-10T08:07:56;77101.47;;;-143.60;71.80
68329;BME280;55182;56.864;60.554;2024-01-10T08:10:22;77091.41;;;-143.60;71.51
68329;BME280;55182;56.864;60.554;2024-01-10T08:12:47;77097.44;;;-143.60;71.28
68329;BME280;55182;56.864;60.554;2024-01-10T08:15:13;77079.34;;;-143.60;70.89
68329;BME280;55182;56.864;60.554;2024-01-10T08:17:38;77067.28;;;-143.60;70.78
68329;BME280;55182;56.864;60.554;2024-01-10T08:20:05;77059.25;;;-143.60;70.66
68329;BME280;55182;56.864;60.554;2024-01-10T08:22:30;77045.19;;;-143.60;70.46
68329;BME280;55182;56.864;60.554;2024-01-10T08:24:56;77043.19;;;-143.60;70.23
68329;BME280;55182;56.864;60.554;2024-01-10T08:27:21;77057.25;;;-143.60;69.97
68329;BME280;55182;56.864;60.554;2024-01-10T08:29:47;77063.28;;;-143.60;70.06
68329;BME280;55182;56.864;60.554;2024-01-10T08:32:12;77083.38;;;-143.60;69.55
68329;BME280;55182;56.864;60.554;2024-01-10T08:34:37;77111.50;;;-143.60;69.39
68329;BME280;55182;56.864;60.554;2024-01-10T08:37:03;77125.59;;;-143.60;69.69
68329;BME280;55182;56.864;60.554;2024-01-10T08:39:29;77137.66;;;-143.60;69.58
68329;BME280;55182;56.864;60.554;2024-01-10T08:41:54;77155.72;;;-143.60;69.96
68329;BME280;55182;56.864;60.554;2024-01-10T08:44:20;77153.72;;;-143.60;69.82
68329;BME280;55182;56.864;60.554;2024-01-10T08:46:45;77159.75;;;-143.60;70.26
68329;BME280;55182;56.864;60.554;2024-01-10T08:49:10;77159.75;;;-143.60;70.01
68329;BME280;55182;56.864;60.554;2024-01-10T08:51:36;77163.78;;;-143.60;70.48
68329;BME280;55182;56.864;60.554;2024-01-10T08:54:01;77167.78;;;-143.60;70.40
68329;BME280;55182;56.864;60.554;2024-01-10T08:56:27;77167.78;;;-143.60;70.43
68329;BME280;55182;56.864;60.554;2024-01-10T08:58:52;77147.69;;;-143.60;70.79
68329;BME280;55182;56.864;60.554;2024-01-10T09:01:18;77139.66;;;-143.60;70.58
68329;BME280;55182;56.864;60.554;2024-01-10T09:03:43;77125.59;;;-143.60;70.30
68329;BME280;55182;56.864;60.554;2024-01-10T09:06:09;77101.47;;;-143.60;70.35
68329;BME280;55182;56.864;60.554;2024-01-10T09:08:34;77087.41;;;-143.60;69.74
68329;BME280;55182;56.864;60.554;2024-01-10T09:11:00;77079.34;;;-143.60;69.44
68329;BME280;55182;56.864;60.554;2024-01-10T09:13:25;77067.28;;;-143.60;69.64
68329;BME280;55182;56.864;60.554;2024-01-10T09:15:51;77063.28;;;-143.60;69.38
68329;BME280;55182;56.864;60.554;2024-01-10T09:18:16;77053.22;;;-143.60;69.42
68329;BME280;55182;56.864;60.554;2024-01-10T09:20:42;77055.22;;;-143.60;69.10
68329;BME280;55182;56.864;60.554;2024-01-10T09:23:07;77059.25;;;-143.60;69.22
68329;BME280;55182;56.864;60.554;2024-01-10T09:25:33;77055.22;;;-143.60;69.18
68329;BME280;55182;56.864;60.554;2024-01-10T09:27:58;77051.22;;;-143.60;69.56
68329;BME280;55182;56.864;60.554;2024-01-10T09:30:24;77045.19;;;-143.60;69.96
68329;BME280;55182;56.864;60.554;2024-01-10T09:32:49;77037.16;;;-143.60;70.75
68329;BME280;55182;56.864;60.554;2024-01-10T09:35:15;77023.06;;;-143.60;71.35
68329;BME280;55182;56.864;60.554;2024-01-10T09:37:41;77002.97;;;-143.60;71.71
68329;BME280;55182;56.864;60.554;2024-01-10T09:40:06;76982.88;;;-143.60;71.92
68329;BME280;55182;56.864;60.554;2024-01-10T09:42:32;76978.84;;;-143.60;71.45
68329;BME280;55182;56.864;60.554;2024-01-10T09:44:58;76990.91;;;-143.60;71.32
68329;BME280;55182;56.864;60.554;2024-01-10T09:47:24;76990.91;;;-143.60;71.38
68329;BME280;55182;56.864;60.554;2024-01-10T09:49:49;76994.94;;;-143.60;71.63
68329;BME280;55182;56.864;60.554;2024-01-10T09:52:16;77011.00;;;-143.60;71.31
68329;BME280;55182;56.864;60.554;2024-01-10T09:54:45;77031.13;;;-143.60;70.86
68329;BME280;55182;56.864;60.554;2024-01-10T09:57:12;77057.25;;;-143.60;70.58
68329;BME280;55182;56.864;60.554;2024-01-10T09:59:38;77071.31;;;-143.60;70.85
68329;BME280;55182;56.864;60.554;2024-01-10T10:02:03;77081.38;;;-143.60;71.08
68329;BME280;55182;56.864;60.554;2024-01-10T10:04:29;77091.41;;;-143.60;71.21
68329;BME280;55182;56.864;60.554;2024-01-10T10:06:59;77087.41;;;-143.60;71.67
68329;BME280;55182;56.864;60.554;2024-01-10T10:09:24;77087.41;;;-143.60;71.66
68329;BME280;55182;56.864;60.554;2024-01-10T10:11:56;77091.41;;;-143.60;71.78
68329;BME280;55182;56.864;60.554;2024-01-10T10:14:22;77103.47;;;-143.60;71.71
68329;BME280;55182;56.864;60.554;2024-01-10T10:16:47;77113.53;;;-143.60;71.73
68329;BME280;55182;56.864;60.554;2024-01-10T10:19:13;77127.59;;;-143.60;71.26
68329;BME280;55182;56.864;60.554;2024-01-10T10:21:47;77131.63;;;-143.60;71.41
68329;BME280;55182;56.864;60.554;2024-01-10T10:24:13;77151.72;;;-143.60;71.18
68329;BME280;55182;56.864;60.554;2024-01-10T10:26:38;77173.81;;;-143.60;71.12
68329;BME280;55182;56.864;60.554;2024-01-10T10:29:04;77183.88;;;-143.60;71.45
68329;BME280;55182;56.864;60.554;2024-01-10T10:31:29;77197.94;;;-143.60;71.52
68329;BME280;55182;56.864;60.554;2024-01-10T10:33:55;77214.03;;;-143.60;71.51
68329;BME280;55182;56.864;60.554;2024-01-10T10:36:20;77228.09;;;-143.60;71.45
68329;BME280;55182;56.864;60.554;2024-01-10T10:38:49;77232.13;;;-143.60;71.82
68329;BME280;55182;56.864;60.554;2024-01-10T10:41:14;77244.19;;;-143.60;71.75
68329;BME280;55182;56.864;60.554;2024-01-10T10:43:40;77260.25;;;-143.60;71.70
68329;BME280;55182;56.864;60.554;2024-01-10T10:46:06;77268.28;;;-143.60;71.52
68329;BME280;55182;56.864;60.554;2024-01-10T10:48:32;77272.31;;;-143.60;71.68
68329;BME280;55182;56.864;60.554;2024-01-10T10:53:42;77308.50;;;-143.60;71.45
68329;BME280;55182;56.864;60.554;2024-01-10T10:56:08;77314.53;;;-143.60;71.44
68329;BME280;55182;56.864;60.554;2024-01-10T10:58:34;77320.56;;;-143.60;71.98
68329;BME280;55182;56.864;60.554;2024-01-10T11:01:00;77336.63;;;-143.60;71.69
68329;BME280;55182;56.864;60.554;2024-01-10T11:03:26;77340.66;;;-143.60;71.79
68329;BME280;55182;56.864;60.554;2024-01-10T11:05:52;77350.72;;;-143.60;71.86
68329;BME280;55182;56.864;60.554;2024-01-10T11:08:18;77356.75;;;-143.60;71.89
68329;BME280;55182;56.864;60.554;2024-01-10T11:10:45;77370.81;;;-143.60;72.17
68329;BME280;55182;56.864;60.554;2024-01-10T11:15:47;77372.81;;;-143.60;72.38
68329;BME280;55182;56.864;60.554;2024-01-10T11:18:22;77378.84;;;-143.60;72.88
68329;BME280;55182;56.864;60.554;2024-01-10T11:23:32;77382.88;;;-143.60;73.12
68329;BME280;55182;56.864;60.554;2024-01-10T11:26:02;77380.84;;;-143.60;73.01
68329;BME280;55182;56.864;60.554;2024-01-10T11:28:30;77380.84;;;-143.60;72.94
68329;BME280;55182;56.864;60.554;2024-01-10T11:30:55;77380.84;;;-143.60;73.07
68329;BME280;55182;56.864;60.554;2024-01-10T11:33:24;77376.84;;;-143.60;73.24
68329;BME280;55182;56.864;60.554;2024-01-10T11:36:12;77380.84;;;-143.60;73.39
68329;BME280;55182;56.864;60.554;2024-01-10T11:41:10;77370.81;;;-143.60;73.82
68329;BME280;55182;56.864;60.554;2024-01-10T11:43:35;77368.78;;;-143.60;74.35
68329;BME280;55182;56.864;60.554;2024-01-10T11:46:01;77366.78;;;-143.60;74.40
68329;BME280;55182;56.864;60.554;2024-01-10T11:48:28;77368.78;;;-143.60;74.35
68329;BME280;55182;56.864;60.554;2024-01-10T11:50:54;77364.78;;;-143.60;74.57
68329;BME280;55182;56.864;60.554;2024-01-10T11:53:39;77364.78;;;-143.60;74.62
68329;BME280;55182;56.864;60.554;2024-01-10T11:56:16;77366.78;;;-143.60;74.32
68329;BME280;55182;56.864;60.554;2024-01-10T12:01:25;77380.84;;;-143.60;74.17
68329;BME280;55182;56.864;60.554;2024-01-10T12:03:52;77386.88;;;-143.60;74.06
68329;BME280;55182;56.864;60.554;2024-01-10T12:06:17;77392.91;;;-143.60;74.19
68329;BME280;55182;56.864;60.554;2024-01-10T12:08:44;77400.97;;;-143.60;74.30
68329;BME280;55182;56.864;60.554;2024-01-10T12:11:09;77404.97;;;-143.60;74.38
68329;BME280;55182;56.864;60.554;2024-01-10T12:13:35;77407.00;;;-143.60;74.46
68329;BME280;55182;56.864;60.554;2024-01-10T12:16:00;77413.03;;;-143.60;74.18
68329;BME280;55182;56.864;60.554;2024-01-10T12:18:25;77404.97;;;-143.60;73.97
68329;BME280;55182;56.864;60.554;2024-01-10T12:20:51;77404.97;;;-143.60;73.86
68329;BME280;55182;56.864;60.554;2024-01-10T12:23:16;77402.97;;;-143.60;73.67
68329;BME280;55182;56.864;60.554;2024-01-10T12:25:42;77404.97;;;-143.60;73.49
68329;BME280;55182;56.864;60.554;2024-01-10T12:28:07;77400.97;;;-143.60;73.58
68329;BME280;55182;56.864;60.554;2024-01-10T12:30:33;77409.00;;;-143.60;73.89
68329;BME280;55182;56.864;60.554;2024-01-10T12:32:59;77417.03;;;-143.60;74.01
68329;BME280;55182;56.864;60.554;2024-01-10T12:35:25;77419.06;;;-143.60;73.74